Terminal Aerodrome Forecast
Issued by NWS

Home | Current Version | Previous Version | Text Only | Print | Product List | Glossary On
Versions: 1 2 3 4 5 6 7 8 9 10 11 12 13 14 15 16 17 18
000
FTUS46 KMTR 211100
TAFSJC
TAF
KSJC 211130Z 2112/2212 15008KT P6SM SKC
     FM211700 VRB03KT P6SM SKC
     FM212000 30005KT P6SM SKC
     FM212300 32012KT P6SM FEW020
     FM220200 30009KT P6SM FEW010
     FM220900 14008KT P6SM SKC=

USA.gov is the U.S. government's official web portal to all federal, state and local government web resources and services.